createdAt,value
2018-02-01T00:00:06.177Z,0.00
2018-02-01T00:01:06.148Z,0.00
2018-02-01T00:02:06.283Z,0.00
2018-02-01T00:03:06.178Z,0.00
2018-02-01T00:04:06.143Z,0.00
2018-02-01T00:05:06.300Z,0.00
2018-02-01T00:06:06.161Z,0.00
2018-02-01T00:07:06.135Z,0.00
2018-02-01T00:08:06.159Z,0.00
2018-02-01T00:09:06.141Z,0.00
2018-02-01T00:10:06.170Z,0.00
2018-02-01T00:11:06.131Z,0.00
2018-02-01T00:12:06.132Z,0.00
2018-02-01T00:13:06.130Z,0.00
2018-02-01T00:14:06.130Z,0.00
2018-02-01T00:15:07.034Z,0.00
2018-02-01T00:16:06.121Z,0.00
2018-02-01T00:17:06.141Z,0.00
2018-02-01T00:18:06.119Z,0.00
2018-02-01T00:19:06.118Z,0.00
2018-02-01T00:20:06.118Z,0.00
2018-02-01T00:21:06.108Z,0.00
2018-02-01T00:22:06.115Z,0.00
2018-02-01T00:23:06.114Z,0.00
2018-02-01T00:24:06.103Z,0.00
2018-02-01T00:25:06.111Z,0.00
2018-02-01T00:26:06.119Z,0.00
2018-02-01T00:27:06.107Z,0.00
2018-02-01T00:28:06.102Z,0.00
2018-02-01T00:29:06.103Z,0.00
2018-02-01T00:30:06.097Z,0.00
2018-02-01T00:31:06.091Z,0.00
2018-02-01T00:32:06.089Z,0.00
2018-02-01T00:33:06.091Z,0.00
2018-02-01T00:34:06.096Z,0.00
2018-02-01T00:35:06.083Z,0.00
2018-02-01T00:36:06.078Z,0.00
2018-02-01T00:37:06.075Z,0.00
2018-02-01T00:38:06.110Z,0.00
2018-02-01T00:39:06.079Z,0.00
2018-02-01T00:40:06.069Z,0.00
2018-02-01T00:41:06.074Z,0.00
2018-02-01T00:42:06.072Z,0.00
2018-02-01T00:43:06.237Z,0.00
2018-02-01T00:44:06.081Z,0.00
2018-02-01T00:45:06.068Z,0.00
2018-02-01T00:46:06.076Z,0.00
2018-02-01T00:47:06.066Z,0.00
2018-02-01T00:48:06.054Z,0.00
2018-02-01T00:49:06.064Z,0.00
2018-02-01T00:50:06.079Z,0.00
2018-02-01T00:51:06.073Z,0.00
2018-02-01T00:52:06.107Z,0.00
2018-02-01T00:53:06.047Z,0.00
2018-02-01T00:54:06.050Z,0.00
2018-02-01T00:55:06.046Z,0.00
2018-02-01T00:56:06.034Z,0.00
2018-02-01T00:57:06.033Z,0.00
2018-02-01T00:58:06.034Z,0.00
2018-02-01T00:59:06.039Z,0.00
2018-02-01T01:00:06.036Z,0.00
2018-02-01T01:01:06.088Z,0.00
2018-02-01T01:02:06.209Z,0.00
2018-02-01T01:03:06.145Z,0.00
2018-02-01T01:04:06.039Z,0.00
2018-02-01T01:05:06.066Z,0.00
2018-02-01T01:06:06.017Z,0.00
2018-02-01T01:07:06.018Z,0.00
2018-02-01T01:08:06.015Z,0.00
2018-02-01T01:09:06.012Z,0.00
2018-02-01T01:10:06.006Z,0.00
2018-02-01T01:11:06.009Z,0.00
2018-02-01T01:12:06.006Z,0.00
2018-02-01T01:13:05.997Z,0.00
2018-02-01T01:14:06.009Z,0.00
2018-02-01T01:15:06.005Z,0.00
2018-02-01T01:16:06.007Z,0.00
2018-02-01T01:17:05.991Z,0.00
2018-02-01T01:18:06.004Z,0.00
2018-02-01T01:19:05.994Z,0.00
2018-02-01T01:20:05.992Z,0.00
2018-02-01T01:21:05.992Z,0.00
2018-02-01T01:22:05.989Z,0.00
2018-02-01T01:23:05.988Z,0.00
2018-02-01T01:24:05.984Z,0.00
2018-02-01T01:25:05.973Z,0.00
2018-02-01T01:26:05.981Z,0.00
2018-02-01T01:27:05.973Z,0.00
2018-02-01T01:28:05.989Z,0.00
2018-02-01T01:29:05.975Z,0.00
2018-02-01T01:30:05.976Z,0.00
2018-02-01T01:31:06.023Z,0.00
2018-02-01T01:32:05.965Z,0.00
2018-02-01T01:33:05.959Z,0.00
2018-02-01T01:34:05.971Z,0.00
2018-02-01T01:35:05.960Z,0.00
2018-02-01T01:36:05.955Z,0.00
2018-02-01T01:37:05.947Z,0.00
2018-02-01T01:38:05.949Z,0.00
2018-02-01T01:39:06.306Z,0.00
2018-02-01T01:40:05.941Z,0.00
2018-02-01T01:41:05.946Z,0.00
2018-02-01T01:42:05.945Z,0.00
2018-02-01T01:43:05.988Z,0.00
2018-02-01T01:44:05.947Z,0.00
2018-02-01T01:45:05.937Z,0.00
2018-02-01T01:46:05.935Z,0.00
2018-02-01T01:47:05.929Z,0.00
2018-02-01T01:48:05.931Z,0.00
2018-02-01T01:49:05.918Z,0.00
2018-02-01T01:50:05.932Z,0.00
2018-02-01T01:51:05.912Z,0.00
2018-02-01T01:52:05.924Z,0.00
2018-02-01T01:53:05.923Z,0.00
2018-02-01T01:54:06.744Z,0.00
2018-02-01T01:55:05.917Z,0.00
2018-02-01T01:56:06.745Z,0.00
2018-02-01T01:57:05.927Z,0.00
2018-02-01T01:58:05.908Z,0.00
2018-02-01T01:59:05.901Z,0.00
2018-02-01T02:00:05.902Z,0.00
2018-02-01T02:01:05.909Z,0.00
2018-02-01T02:02:05.902Z,0.00
2018-02-01T02:03:05.902Z,0.00
2018-02-01T02:04:05.895Z,0.00
2018-02-01T02:05:05.897Z,0.00
2018-02-01T02:06:05.899Z,0.00
2018-02-01T02:07:05.891Z,0.00
2018-02-01T02:08:05.890Z,0.00
2018-02-01T02:09:05.885Z,0.00
2018-02-01T02:10:05.883Z,0.00
2018-02-01T02:11:05.883Z,0.00
2018-02-01T02:12:05.996Z,0.00
2018-02-01T02:13:05.879Z,0.00
2018-02-01T02:14:05.880Z,0.00
2018-02-01T02:15:05.884Z,0.00
2018-02-01T02:16:05.894Z,0.00
2018-02-01T02:17:05.870Z,0.00
2018-02-01T02:18:05.863Z,0.00
2018-02-01T02:19:05.864Z,0.00
2018-02-01T02:20:05.854Z,0.00
2018-02-01T02:21:05.862Z,0.00
2018-02-01T02:22:05.883Z,0.00
2018-02-01T02:23:05.857Z,0.00
2018-02-01T02:24:05.860Z,0.00
2018-02-01T02:25:05.858Z,0.00
2018-02-01T02:26:05.849Z,0.00
2018-02-01T02:27:05.842Z,0.00
2018-02-01T02:28:06.748Z,0.00
2018-02-01T02:29:05.846Z,0.00
2018-02-01T02:30:05.842Z,0.00
2018-02-01T02:31:05.827Z,0.00
2018-02-01T02:32:05.833Z,0.00
2018-02-01T02:33:05.826Z,0.00
2018-02-01T02:34:05.821Z,0.00
2018-02-01T02:35:05.816Z,0.00
2018-02-01T02:36:05.832Z,0.00
2018-02-01T02:37:05.813Z,0.00
2018-02-01T02:38:05.831Z,0.00
2018-02-01T02:39:05.819Z,0.00
2018-02-01T02:40:05.810Z,0.00
2018-02-01T02:41:06.750Z,0.00
2018-02-01T02:42:05.804Z,0.00
2018-02-01T02:43:05.817Z,0.00
2018-02-01T02:44:05.810Z,0.00
2018-02-01T02:45:05.802Z,0.00
2018-02-01T02:46:05.801Z,0.00
2018-02-01T02:47:05.796Z,0.00
2018-02-01T02:48:05.792Z,0.00
2018-02-01T02:49:05.794Z,0.00
2018-02-01T02:50:05.798Z,0.00
2018-02-01T02:51:05.786Z,0.00
2018-02-01T02:52:05.797Z,0.00
2018-02-01T02:53:05.790Z,0.00
2018-02-01T02:54:05.787Z,0.00
2018-02-01T02:55:05.791Z,0.00
2018-02-01T02:56:05.781Z,0.00
2018-02-01T02:57:05.769Z,0.00
2018-02-01T02:58:05.783Z,0.00
2018-02-01T02:59:05.763Z,0.00
2018-02-01T03:00:05.792Z,0.00
2018-02-01T03:01:05.770Z,0.00
2018-02-01T03:02:05.816Z,0.00
2018-02-01T03:03:05.758Z,0.00
2018-02-01T03:04:05.763Z,0.00
2018-02-01T03:05:05.757Z,0.00
2018-02-01T03:06:05.758Z,0.00
2018-02-01T03:07:05.753Z,0.00
2018-02-01T03:08:05.754Z,0.00
2018-02-01T03:09:05.996Z,0.00
2018-02-01T03:10:05.744Z,0.00
2018-02-01T03:11:05.738Z,0.00
2018-02-01T03:12:05.738Z,0.00
2018-02-01T03:13:05.743Z,0.00
2018-02-01T03:14:05.738Z,0.00
2018-02-01T03:15:05.772Z,0.00
2018-02-01T03:16:05.733Z,0.00
2018-02-01T03:17:05.732Z,0.00
2018-02-01T03:18:05.734Z,0.00
2018-02-01T03:19:05.725Z,0.00
2018-02-01T03:20:05.721Z,0.00
2018-02-01T03:21:05.718Z,0.00
2018-02-01T03:22:05.709Z,0.00
2018-02-01T03:23:05.715Z,0.00
2018-02-01T03:24:05.713Z,0.00
2018-02-01T03:25:05.710Z,0.00
2018-02-01T03:26:05.709Z,0.00
2018-02-01T03:27:05.709Z,0.00
2018-02-01T03:28:05.798Z,0.00
2018-02-01T03:29:05.705Z,0.00
2018-02-01T03:30:05.700Z,0.00
2018-02-01T03:31:05.691Z,0.00
2018-02-01T03:32:05.702Z,0.00
2018-02-01T03:33:05.701Z,0.00
2018-02-01T03:34:05.680Z,0.00
2018-02-01T03:35:05.701Z,0.00
2018-02-01T03:36:05.697Z,0.00
2018-02-01T03:37:05.686Z,0.00
2018-02-01T03:38:05.678Z,0.00
2018-02-01T03:39:05.681Z,0.00
2018-02-01T03:40:05.683Z,0.00
2018-02-01T03:41:05.697Z,0.00
2018-02-01T03:42:05.671Z,0.00
2018-02-01T03:43:05.671Z,0.00
2018-02-01T03:44:05.685Z,0.00
2018-02-01T03:45:05.721Z,0.00
2018-02-01T03:46:05.728Z,0.00
2018-02-01T03:47:05.662Z,0.00
2018-02-01T03:48:05.666Z,0.00
2018-02-01T03:49:05.676Z,0.00
2018-02-01T03:50:05.646Z,0.00
2018-02-01T03:51:05.658Z,0.00
2018-02-01T03:52:05.638Z,0.00
2018-02-01T03:53:05.653Z,0.00
2018-02-01T03:54:05.647Z,0.00
2018-02-01T03:55:05.702Z,0.00
2018-02-01T03:56:05.638Z,0.00
2018-02-01T03:57:05.635Z,0.00
2018-02-01T03:58:05.635Z,0.00
2018-02-01T03:59:05.719Z,0.00
2018-02-01T04:00:05.621Z,0.00
2018-02-01T04:01:05.630Z,0.00
2018-02-01T04:02:05.626Z,0.00
2018-02-01T04:03:05.651Z,0.00
2018-02-01T04:04:05.625Z,0.00
2018-02-01T04:05:05.607Z,0.00
2018-02-01T04:06:05.608Z,0.00
2018-02-01T04:07:05.603Z,0.00
2018-02-01T04:08:05.608Z,0.00
2018-02-01T04:09:05.607Z,0.00
2018-02-01T04:10:05.597Z,0.00
2018-02-01T04:11:05.603Z,0.00
2018-02-01T04:12:05.661Z,0.00
2018-02-01T04:13:05.588Z,0.00
2018-02-01T04:14:05.600Z,0.00
2018-02-01T04:15:05.594Z,0.00
2018-02-01T04:16:05.587Z,0.00
2018-02-01T04:17:05.596Z,0.00
2018-02-01T04:18:05.582Z,0.00
2018-02-01T04:19:05.584Z,0.00
2018-02-01T04:20:05.587Z,0.00
2018-02-01T04:21:05.574Z,0.00
2018-02-01T04:22:05.574Z,0.00
2018-02-01T04:23:05.562Z,0.00
2018-02-01T04:24:05.574Z,0.00
2018-02-01T04:25:06.264Z,0.00
2018-02-01T04:26:05.568Z,0.00
2018-02-01T04:27:05.574Z,0.00
2018-02-01T04:28:05.570Z,0.00
2018-02-01T04:29:05.557Z,0.00
2018-02-01T04:30:05.553Z,0.00
2018-02-01T04:31:05.552Z,0.00
2018-02-01T04:32:05.566Z,0.00
2018-02-01T04:33:05.548Z,0.00
2018-02-01T04:34:05.548Z,0.00
2018-02-01T04:35:05.542Z,0.00
2018-02-01T04:36:05.542Z,0.00
2018-02-01T04:37:05.540Z,0.00
2018-02-01T04:38:05.530Z,0.00
2018-02-01T04:39:05.533Z,0.00
2018-02-01T04:40:05.533Z,0.00
2018-02-01T04:41:05.525Z,0.00
2018-02-01T04:42:05.520Z,0.00
2018-02-01T04:43:05.529Z,0.00
2018-02-01T04:44:05.522Z,0.00
2018-02-01T04:45:05.525Z,0.00
2018-02-01T04:46:05.603Z,0.00
2018-02-01T04:47:05.516Z,0.00
2018-02-01T04:48:05.556Z,0.00
2018-02-01T04:49:05.506Z,0.00
2018-02-01T04:50:05.502Z,0.00
2018-02-01T04:51:05.504Z,0.00
2018-02-01T04:52:05.508Z,0.00
2018-02-01T04:53:05.495Z,0.00
2018-02-01T04:54:05.491Z,0.00
2018-02-01T04:55:05.494Z,0.00
2018-02-01T04:56:05.497Z,0.00
2018-02-01T04:57:05.495Z,0.00
2018-02-01T04:58:05.489Z,0.00
2018-02-01T04:59:05.524Z,0.00
2018-02-01T05:00:05.481Z,0.00
2018-02-01T05:01:05.477Z,0.00
2018-02-01T05:02:05.477Z,0.00
2018-02-01T05:03:05.476Z,0.00
2018-02-01T05:04:05.469Z,0.00
2018-02-01T05:05:05.460Z,0.00
2018-02-01T05:06:05.464Z,0.00
2018-02-01T05:07:05.458Z,0.00
2018-02-01T05:08:05.463Z,0.00
2018-02-01T05:09:05.454Z,0.00
2018-02-01T05:10:05.455Z,0.00
2018-02-01T05:11:05.448Z,0.00
2018-02-01T05:12:05.450Z,0.00
2018-02-01T05:13:05.458Z,0.00
2018-02-01T05:14:05.443Z,0.00
2018-02-01T05:15:05.442Z,0.00
2018-02-01T05:16:05.448Z,0.00
2018-02-01T05:17:05.432Z,0.00
2018-02-01T05:18:05.425Z,0.00
2018-02-01T05:19:05.440Z,0.00
2018-02-01T05:20:05.436Z,0.00
2018-02-01T05:21:05.438Z,0.00
2018-02-01T05:22:05.427Z,0.00
2018-02-01T05:23:05.421Z,0.00
2018-02-01T05:24:05.427Z,0.00
2018-02-01T05:25:05.428Z,0.00
2018-02-01T05:26:05.415Z,0.00
2018-02-01T05:27:05.416Z,0.00
2018-02-01T05:28:05.408Z,0.00
2018-02-01T05:29:05.408Z,0.00
2018-02-01T05:30:06.276Z,0.00
2018-02-01T05:31:05.407Z,0.00
2018-02-01T05:32:05.407Z,0.00
2018-02-01T05:33:05.399Z,0.00
2018-02-01T05:34:05.395Z,0.00
2018-02-01T05:35:05.445Z,0.00
2018-02-01T05:36:05.392Z,0.00
2018-02-01T05:37:05.399Z,0.00
2018-02-01T05:38:05.383Z,0.00
2018-02-01T05:39:05.378Z,0.00
2018-02-01T05:40:05.373Z,0.00
2018-02-01T05:41:05.378Z,0.00
2018-02-01T05:42:05.385Z,0.00
2018-02-01T05:43:05.421Z,0.00
2018-02-01T05:44:05.374Z,0.00
2018-02-01T05:45:05.379Z,0.00
2018-02-01T05:46:05.381Z,0.00
2018-02-01T05:47:05.368Z,0.00
2018-02-01T05:48:05.365Z,0.00
2018-02-01T05:49:05.405Z,0.00
2018-02-01T05:50:05.394Z,0.00
2018-02-01T05:51:05.403Z,0.00
2018-02-01T05:52:05.368Z,0.00
2018-02-01T05:53:05.349Z,0.00
2018-02-01T05:54:05.334Z,0.00
2018-02-01T05:55:05.343Z,0.00
2018-02-01T05:56:05.433Z,0.00
2018-02-01T05:57:05.334Z,0.00
2018-02-01T05:58:05.350Z,0.00
2018-02-01T05:59:05.330Z,0.00
2018-02-01T06:00:05.326Z,0.00
2018-02-01T06:01:05.320Z,0.00
2018-02-01T06:02:05.317Z,0.00
2018-02-01T06:03:05.356Z,0.00
2018-02-01T06:04:05.322Z,0.00
2018-02-01T06:05:05.311Z,0.00
2018-02-01T06:06:05.314Z,0.00
2018-02-01T06:07:05.305Z,0.00
2018-02-01T06:08:05.308Z,0.00
2018-02-01T06:09:06.305Z,0.00
2018-02-01T06:10:05.305Z,0.00
2018-02-01T06:11:05.297Z,0.00
2018-02-01T06:12:05.299Z,0.00
2018-02-01T06:13:05.311Z,0.00
2018-02-01T06:14:05.293Z,0.00
2018-02-01T06:15:05.292Z,0.00
2018-02-01T06:16:05.283Z,0.00
2018-02-01T06:17:05.285Z,0.00
2018-02-01T06:18:05.282Z,0.00
2018-02-01T06:19:05.280Z,0.00
2018-02-01T06:20:05.276Z,0.00
2018-02-01T06:21:05.276Z,0.00
2018-02-01T06:22:05.279Z,0.00
2018-02-01T06:23:05.272Z,0.00
2018-02-01T06:24:05.271Z,0.00
2018-02-01T06:25:05.258Z,0.00
2018-02-01T06:26:05.251Z,0.00
2018-02-01T06:27:05.256Z,0.00
2018-02-01T06:28:05.255Z,0.00
2018-02-01T06:29:05.255Z,0.00
2018-02-01T06:30:05.314Z,0.00
2018-02-01T06:31:05.247Z,0.00
2018-02-01T06:32:05.244Z,0.00
2018-02-01T06:33:05.265Z,0.00
2018-02-01T06:34:05.240Z,0.00
2018-02-01T06:35:05.233Z,0.00
2018-02-01T06:36:05.240Z,0.00
2018-02-01T06:37:05.231Z,0.00
2018-02-01T06:38:05.245Z,4.00
2018-02-01T06:39:05.234Z,4.00
2018-02-01T06:40:05.240Z,4.00
2018-02-01T06:41:05.224Z,0.00
2018-02-01T06:42:05.218Z,4.00
2018-02-01T06:43:05.222Z,4.00
2018-02-01T06:44:05.216Z,4.00
2018-02-01T06:45:05.276Z,8.00
2018-02-01T06:46:05.206Z,8.00
2018-02-01T06:47:05.215Z,8.00
2018-02-01T06:48:05.205Z,8.00
2018-02-01T06:49:05.211Z,8.00
2018-02-01T06:50:05.204Z,12.00
2018-02-01T06:51:05.241Z,16.00
2018-02-01T06:52:05.190Z,16.00
2018-02-01T06:53:05.191Z,24.00
2018-02-01T06:54:05.185Z,24.00
2018-02-01T06:55:05.178Z,28.00
2018-02-01T06:56:05.273Z,32.00
2018-02-01T06:57:05.187Z,36.00
2018-02-01T06:58:05.171Z,44.00
2018-02-01T06:59:05.181Z,44.00
2018-02-01T07:00:05.176Z,56.00
2018-02-01T07:01:05.167Z,64.00
2018-02-01T07:02:05.167Z,68.00
2018-02-01T07:03:05.165Z,80.00
2018-02-01T07:04:05.168Z,84.00
2018-02-01T07:05:05.158Z,92.00
2018-02-01T07:06:05.175Z,104.00
2018-02-01T07:07:05.158Z,116.00
2018-02-01T07:08:05.158Z,124.00
2018-02-01T07:09:05.222Z,136.00
2018-02-01T07:10:05.147Z,152.00
2018-02-01T07:11:05.144Z,164.00
2018-02-01T07:12:05.146Z,180.00
2018-02-01T07:13:05.142Z,192.00
2018-02-01T07:14:05.789Z,208.00
2018-02-01T07:15:05.137Z,228.00
2018-02-01T07:16:05.134Z,244.00
2018-02-01T07:17:05.131Z,268.00
2018-02-01T07:18:05.128Z,284.00
2018-02-01T07:19:05.115Z,308.00
2018-02-01T07:20:05.126Z,328.00
2018-02-01T07:21:05.117Z,348.00
2018-02-01T07:22:05.113Z,372.00
2018-02-01T07:23:05.107Z,392.00
2018-02-01T07:24:05.118Z,416.00
2018-02-01T07:25:05.104Z,448.00
2018-02-01T07:26:05.100Z,484.00
2018-02-01T07:27:05.101Z,516.00
2018-02-01T07:28:05.098Z,532.00
2018-02-01T07:29:05.088Z,580.00
2018-02-01T07:30:05.796Z,640.00
2018-02-01T07:31:05.092Z,708.00
2018-02-01T07:32:05.088Z,716.00
2018-02-01T07:33:05.110Z,716.00
2018-02-01T07:34:05.102Z,840.00
2018-02-01T07:35:05.118Z,860.00
2018-02-01T07:36:05.089Z,888.00
2018-02-01T07:37:05.085Z,840.00
2018-02-01T07:38:05.076Z,820.00
2018-02-01T07:39:05.073Z,856.00
2018-02-01T07:40:05.072Z,876.00
2018-02-01T07:41:05.074Z,900.00
2018-02-01T07:42:05.063Z,932.00
2018-02-01T07:43:05.794Z,960.00
2018-02-01T07:44:05.060Z,1012.00
2018-02-01T07:45:05.079Z,1068.00
2018-02-01T07:46:05.051Z,1112.00
2018-02-01T07:47:05.055Z,1152.00
2018-02-01T07:48:05.053Z,1196.00
2018-02-01T07:49:05.053Z,1260.00
2018-02-01T07:50:05.048Z,1332.00
2018-02-01T07:51:05.046Z,1384.00
2018-02-01T07:52:05.056Z,1416.00
2018-02-01T07:53:05.045Z,1548.00
2018-02-01T07:54:05.035Z,1640.00
2018-02-01T07:55:05.048Z,1708.00
2018-02-01T07:56:05.116Z,1740.00
2018-02-01T07:57:05.040Z,1476.00
2018-02-01T07:58:05.024Z,1816.00
2018-02-01T07:59:05.030Z,1840.00
2018-02-01T08:00:05.023Z,1676.00
2018-02-01T08:01:05.015Z,1532.00
2018-02-01T08:02:05.017Z,1720.00
2018-02-01T08:03:05.020Z,1728.00
2018-02-01T08:04:05.035Z,1756.00
2018-02-01T08:05:05.029Z,2216.00
2018-02-01T08:06:05.014Z,2192.00
2018-02-01T08:07:05.006Z,2348.00
2018-02-01T08:08:05.000Z,1704.00
2018-02-01T08:09:05.006Z,1600.00
2018-02-01T08:10:05.006Z,1580.00
2018-02-01T08:11:04.996Z,1580.00
2018-02-01T08:12:05.009Z,1708.00
2018-02-01T08:13:04.998Z,2416.00
2018-02-01T08:14:05.791Z,3128.00
2018-02-01T08:15:05.007Z,3356.00
2018-02-01T08:16:04.988Z,3284.00
2018-02-01T08:17:06.417Z,3364.00
2018-02-01T08:18:05.009Z,3392.00
2018-02-01T08:19:04.996Z,3388.00
2018-02-01T08:20:04.995Z,3592.00
2018-02-01T08:21:04.987Z,3568.00
2018-02-01T08:22:04.994Z,3492.00
2018-02-01T08:23:04.989Z,4608.00
2018-02-01T08:24:04.985Z,5780.00
2018-02-01T08:25:04.979Z,5128.00
2018-02-01T08:26:04.973Z,4292.00
2018-02-01T08:27:05.006Z,3444.00
2018-02-01T08:28:04.994Z,4272.00
2018-02-01T08:29:04.980Z,3960.00
2018-02-01T08:30:05.121Z,3628.00
2018-02-01T08:31:04.988Z,4120.00
2018-02-01T08:32:05.006Z,4136.00
2018-02-01T08:33:04.996Z,3708.00
2018-02-01T08:34:05.109Z,3420.00
2018-02-01T08:35:05.048Z,3092.00
2018-02-01T08:36:04.993Z,2944.00
2018-02-01T08:37:05.046Z,3452.00
2018-02-01T08:38:04.980Z,3532.00
2018-02-01T08:39:05.003Z,3060.00
2018-02-01T08:40:04.985Z,3328.00
2018-02-01T08:41:05.003Z,3956.00
2018-02-01T08:42:04.979Z,4276.00
2018-02-01T08:43:05.027Z,4756.00
2018-02-01T08:44:04.978Z,5448.00
2018-02-01T08:45:04.984Z,5024.00
2018-02-01T08:46:04.979Z,5656.00
2018-02-01T08:47:05.026Z,5784.00
2018-02-01T08:48:05.818Z,5828.00
2018-02-01T08:49:04.980Z,5972.00
2018-02-01T08:50:05.032Z,6016.00
2018-02-01T08:51:05.052Z,6180.00
2018-02-01T08:52:04.993Z,6308.00
2018-02-01T08:53:05.024Z,6352.00
2018-02-01T08:54:05.190Z,6456.00
2018-02-01T08:55:04.991Z,6628.00
2018-02-01T08:56:05.001Z,6612.00
2018-02-01T08:57:04.992Z,7080.00
2018-02-01T08:58:04.997Z,6748.00
2018-02-01T08:59:04.998Z,6588.00
2018-02-01T09:00:04.996Z,6756.00
2018-02-01T09:01:05.813Z,7024.00
2018-02-01T09:02:05.007Z,7284.00
2018-02-01T09:03:05.011Z,7472.00
2018-02-01T09:04:05.813Z,7536.00
2018-02-01T09:05:05.004Z,7620.00
2018-02-01T09:06:05.848Z,8160.00
2018-02-01T09:07:05.034Z,8832.00
2018-02-01T09:08:05.051Z,8672.00
2018-02-01T09:09:05.027Z,7756.00
2018-02-01T09:10:05.812Z,7732.00
2018-02-01T09:11:05.023Z,8476.00
2018-02-01T09:12:05.023Z,7804.00
2018-02-01T09:13:05.037Z,7756.00
2018-02-01T09:14:05.816Z,6896.00
2018-02-01T09:15:05.101Z,7816.00
2018-02-01T09:16:05.037Z,8032.00
2018-02-01T09:17:05.824Z,8084.00
2018-02-01T09:18:05.049Z,8200.00
2018-02-01T09:19:05.079Z,8448.00
2018-02-01T09:20:05.095Z,8340.00
2018-02-01T09:21:05.080Z,8784.00
2018-02-01T09:22:05.062Z,9016.00
2018-02-01T09:23:05.073Z,9204.00
2018-02-01T09:24:05.068Z,8456.00
2018-02-01T09:25:05.161Z,5440.00
2018-02-01T09:26:05.080Z,9052.00
2018-02-01T09:27:05.248Z,9192.00
2018-02-01T09:28:05.128Z,9316.00
2018-02-01T09:29:05.083Z,9352.00
2018-02-01T09:30:05.090Z,9348.00
2018-02-01T09:31:05.154Z,9076.00
2018-02-01T09:32:05.097Z,9940.00
2018-02-01T09:33:05.104Z,10372.00
2018-02-01T09:34:05.096Z,10752.00
2018-02-01T09:35:05.123Z,11160.00
2018-02-01T09:36:05.104Z,11764.00
2018-02-01T09:37:05.117Z,11716.00
2018-02-01T09:38:05.140Z,12152.00
2018-02-01T09:39:05.125Z,11804.00
2018-02-01T09:40:05.137Z,12916.00
2018-02-01T09:41:05.133Z,12656.00
2018-02-01T09:42:05.129Z,6620.00
2018-02-01T09:43:05.143Z,13596.00
2018-02-01T09:44:05.147Z,8364.00
2018-02-01T09:45:05.163Z,9976.00
2018-02-01T09:46:05.195Z,12488.00
2018-02-01T09:47:05.162Z,12944.00
2018-02-01T09:48:05.376Z,7004.00
2018-02-01T09:49:05.184Z,9916.00
2018-02-01T09:50:05.833Z,11124.00
2018-02-01T09:51:05.203Z,9992.00
2018-02-01T09:52:05.193Z,6592.00
2018-02-01T09:53:05.193Z,9212.00
2018-02-01T09:54:05.199Z,12656.00
2018-02-01T09:55:05.223Z,8016.00
2018-02-01T09:56:05.236Z,5120.00
2018-02-01T09:57:05.223Z,7072.00
2018-02-01T09:58:05.838Z,6512.00
2018-02-01T09:59:05.222Z,6296.00
2018-02-01T10:00:05.214Z,6812.00
2018-02-01T10:01:05.855Z,9004.00
2018-02-01T10:02:05.230Z,4608.00
2018-02-01T10:03:05.230Z,6524.00
2018-02-01T10:04:05.232Z,5744.00
2018-02-01T10:05:05.235Z,7536.00
2018-02-01T10:06:05.245Z,7200.00
2018-02-01T10:07:05.253Z,6764.00
2018-02-01T10:08:05.254Z,7900.00
2018-02-01T10:09:05.247Z,8056.00
2018-02-01T10:10:05.245Z,8508.00
2018-02-01T10:11:05.441Z,10116.00
2018-02-01T10:12:05.273Z,8720.00
2018-02-01T10:13:05.270Z,7244.00
2018-02-01T10:14:05.266Z,5384.00
2018-02-01T10:15:05.274Z,7644.00
2018-02-01T10:16:05.277Z,9156.00
2018-02-01T10:17:05.272Z,8764.00
2018-02-01T10:18:05.271Z,8860.00
2018-02-01T10:19:05.279Z,6240.00
2018-02-01T10:20:05.372Z,6028.00
2018-02-01T10:21:05.346Z,8492.00
2018-02-01T10:22:05.294Z,12944.00
2018-02-01T10:23:05.280Z,13076.00
2018-02-01T10:24:05.282Z,14104.00
2018-02-01T10:25:05.316Z,17664.00
2018-02-01T10:26:05.842Z,15616.00
2018-02-01T10:27:05.293Z,11976.00
2018-02-01T10:28:05.303Z,16832.00
2018-02-01T10:29:05.303Z,25568.00
2018-02-01T10:30:05.312Z,27232.00
2018-02-01T10:31:05.337Z,17920.00
2018-02-01T10:32:05.307Z,23488.00
2018-02-01T10:33:05.845Z,10776.00
2018-02-01T10:34:05.324Z,12928.00
2018-02-01T10:35:05.336Z,7828.00
2018-02-01T10:36:05.317Z,5432.00
2018-02-01T10:37:05.374Z,5772.00
2018-02-01T10:38:05.323Z,5996.00
2018-02-01T10:39:05.439Z,4368.00
2018-02-01T10:40:05.338Z,3944.00
2018-02-01T10:41:05.329Z,6080.00
2018-02-01T10:42:05.334Z,6004.00
2018-02-01T10:43:05.374Z,4200.00
2018-02-01T10:44:05.369Z,3720.00
2018-02-01T10:45:05.935Z,3300.00
2018-02-01T10:46:05.355Z,4356.00
2018-02-01T10:47:05.392Z,3756.00
2018-02-01T10:48:05.391Z,3152.00
2018-02-01T10:49:05.357Z,2848.00
2018-02-01T10:50:05.390Z,3228.00
2018-02-01T10:51:05.371Z,4972.00
2018-02-01T10:52:05.454Z,5032.00
2018-02-01T10:53:05.391Z,4104.00
2018-02-01T10:54:05.391Z,3972.00
2018-02-01T10:55:05.402Z,4344.00
2018-02-01T10:56:05.370Z,3872.00
2018-02-01T10:57:05.376Z,3504.00
2018-02-01T10:58:05.409Z,2960.00
2018-02-01T10:59:05.403Z,2620.00
2018-02-01T11:00:05.485Z,2828.00
2018-02-01T11:01:05.387Z,2024.00
2018-02-01T11:02:06.356Z,1948.00
2018-02-01T11:03:05.413Z,1880.00
2018-02-01T11:04:05.384Z,1876.00
2018-02-01T11:06:52.030Z,2264.00
2018-02-01T15:52:14.166Z,148.00
2018-02-01T15:53:14.024Z,144.00
2018-02-01T15:54:13.858Z,156.00
2018-02-01T15:55:13.877Z,152.00
2018-02-01T15:56:13.890Z,148.00
2018-02-01T15:57:13.973Z,144.00
2018-02-01T15:58:13.853Z,128.00
2018-02-01T15:59:13.868Z,124.00
2018-02-01T16:00:13.870Z,108.00
2018-02-01T16:01:13.856Z,112.00
2018-02-01T16:02:13.875Z,100.00
2018-02-01T16:03:13.854Z,76.00
2018-02-01T16:04:13.855Z,72.00
2018-02-01T16:05:13.856Z,72.00
2018-02-01T16:06:13.850Z,80.00
2018-02-01T16:07:13.850Z,100.00
2018-02-01T16:08:13.843Z,104.00
2018-02-01T16:09:13.859Z,104.00
2018-02-01T16:10:13.943Z,100.00
2018-02-01T16:11:13.843Z,100.00
2018-02-01T16:12:13.850Z,92.00
2018-02-01T16:13:13.851Z,84.00
2018-02-01T16:14:13.841Z,88.00
2018-02-01T16:15:13.851Z,84.00
2018-02-01T16:16:13.847Z,84.00
2018-02-01T16:17:13.923Z,88.00
2018-02-01T16:18:13.874Z,84.00
2018-02-01T16:19:13.835Z,84.00
2018-02-01T16:20:14.505Z,68.00
2018-02-01T16:21:13.843Z,52.00
2018-02-01T16:22:13.850Z,52.00
2018-02-01T16:23:13.932Z,56.00
2018-02-01T16:24:13.992Z,56.00
2018-02-01T16:25:13.844Z,48.00
2018-02-01T16:26:13.887Z,44.00
2018-02-01T16:27:13.835Z,40.00
2018-02-01T16:28:13.878Z,36.00
2018-02-01T16:29:13.854Z,36.00
2018-02-01T16:30:13.888Z,36.00
2018-02-01T16:31:13.827Z,36.00
2018-02-01T16:32:13.827Z,32.00
2018-02-01T16:33:13.826Z,28.00
2018-02-01T16:34:13.821Z,24.00
2018-02-01T16:35:13.819Z,24.00
2018-02-01T16:36:13.859Z,24.00
2018-02-01T16:37:13.834Z,24.00
2018-02-01T16:38:13.851Z,20.00
2018-02-01T16:39:13.827Z,20.00
2018-02-01T16:40:13.839Z,16.00
2018-02-01T16:41:13.819Z,20.00
2018-02-01T16:42:13.839Z,16.00
2018-02-01T16:43:13.847Z,20.00
2018-02-01T16:44:13.830Z,16.00
2018-02-01T16:45:13.849Z,16.00
2018-02-01T16:46:13.849Z,16.00
2018-02-01T16:47:13.805Z,16.00
2018-02-01T16:48:13.875Z,16.00
2018-02-01T16:49:13.862Z,16.00
2018-02-01T16:50:13.848Z,16.00
2018-02-01T16:51:13.876Z,16.00
2018-02-01T16:52:13.810Z,16.00
2018-02-01T16:53:13.798Z,16.00
2018-02-01T16:54:13.890Z,16.00
2018-02-01T16:55:13.836Z,16.00
2018-02-01T16:56:13.849Z,16.00
2018-02-01T16:57:13.810Z,16.00
2018-02-01T16:58:13.798Z,16.00
2018-02-01T16:59:13.802Z,16.00
2018-02-01T17:00:13.792Z,16.00
2018-02-01T17:01:13.816Z,16.00
2018-02-01T17:02:13.906Z,16.00
2018-02-01T17:03:13.804Z,16.00
2018-02-01T17:04:13.818Z,16.00
2018-02-01T17:05:13.798Z,16.00
2018-02-01T17:06:13.806Z,16.00
2018-02-01T17:07:13.803Z,16.00
2018-02-01T17:08:13.807Z,16.00
2018-02-01T17:09:13.791Z,16.00
2018-02-01T17:10:13.843Z,16.00
2018-02-01T17:11:13.785Z,16.00
2018-02-01T17:12:13.782Z,16.00
2018-02-01T17:13:13.795Z,16.00
2018-02-01T17:14:13.786Z,16.00
2018-02-01T17:15:13.785Z,16.00
2018-02-01T17:16:13.857Z,16.00
2018-02-01T17:17:13.797Z,16.00
2018-02-01T17:18:13.779Z,16.00
2018-02-01T17:19:13.785Z,16.00
2018-02-01T17:20:13.799Z,16.00
2018-02-01T17:21:13.776Z,16.00
2018-02-01T17:22:13.831Z,16.00
2018-02-01T17:23:13.781Z,16.00
2018-02-01T17:24:13.778Z,16.00
2018-02-01T17:25:13.787Z,16.00
2018-02-01T17:26:13.811Z,16.00
2018-02-01T17:27:13.756Z,16.00
2018-02-01T17:28:14.021Z,16.00
2018-02-01T17:29:13.878Z,16.00
2018-02-01T17:30:13.866Z,16.00
2018-02-01T17:31:13.802Z,16.00
2018-02-01T17:32:14.367Z,16.00
2018-02-01T17:33:14.359Z,16.00
2018-02-01T17:34:13.753Z,16.00
2018-02-01T17:35:13.808Z,16.00
2018-02-01T17:36:13.766Z,16.00